Time;durP1;ratioP1;P1;durP2;ratioP2;P2;SDS_P1;SDS_P2;PMS_P1;PMS_P2;Temp;Humidity;BMP_temperature;BMP_pressure;BME280_temperature;BME280_humidity;BME280_pressure;Samples;Min_cycle;Max_cycle;Signal;HPM_P1;HPM_P2
2023/11/02 00:01:11;;;;;;;0.50;0.50;;;9.20;99.90;;;;;;4969242;28;20055;-84
2023/11/02 00:03:41;;;;;;;0.50;0.50;;;9.10;99.90;;;;;;4970489;28;20050;-85
2023/11/02 00:06:20;;;;;;;0.43;0.43;;;9.20;99.90;;;;;;4989434;28;20042;-83
2023/11/02 00:09:08;;;;;;;0.40;0.40;;;9.10;99.90;;;;;;4986664;28;20396;-82
2023/11/02 00:11:55;;;;;;;0.40;0.40;;;9.00;99.90;;;;;;4989422;28;20053;-84
2023/11/02 00:14:22;;;;;;;0.68;0.68;;;9.00;99.90;;;;;;4976396;28;20047;-85
2023/11/02 00:16:48;;;;;;;0.30;0.30;;;9.00;99.90;;;;;;4952188;28;20364;-85
2023/11/02 00:19:32;;;;;;;0.45;0.45;;;9.10;99.90;;;;;;4957712;28;20031;-85
2023/11/02 00:22:06;;;;;;;0.43;0.43;;;9.00;99.90;;;;;;4994549;28;20074;-85
2023/11/02 00:24:35;;;;;;;0.50;0.50;;;9.00;99.90;;;;;;4994912;28;21051;-85
2023/11/02 00:27:00;;;;;;;0.50;0.50;;;9.00;99.90;;;;;;4975760;28;20508;-86
2023/11/02 00:29:26;;;;;;;1.65;0.73;;;9.00;99.90;;;;;;4978869;28;20070;-84
2023/11/02 00:31:52;;;;;;;0.40;0.40;;;8.90;99.90;;;;;;4997305;28;20082;-83
2023/11/02 00:34:18;;;;;;;0.40;0.40;;;8.90;99.90;;;;;;5002173;28;20043;-83
2023/11/02 00:36:44;;;;;;;0.50;0.50;;;8.90;99.90;;;;;;4964115;28;20085;-84
2023/11/02 00:39:10;;;;;;;0.50;0.50;;;8.90;99.90;;;;;;4990248;28;20040;-84
2023/11/02 00:41:36;;;;;;;0.40;0.40;;;8.80;99.90;;;;;;5033103;28;20041;-83
2023/11/02 00:44:03;;;;;;;0.50;0.50;;;8.80;99.90;;;;;;4980733;28;20031;-84
2023/11/02 00:46:28;;;;;;;0.60;0.60;;;8.80;99.90;;;;;;4981663;28;20078;-84
2023/11/02 00:48:54;;;;;;;0.40;0.40;;;8.70;99.90;;;;;;4982502;28;20074;-84
2023/11/02 00:51:26;;;;;;;0.40;0.40;;;8.70;99.90;;;;;;4964769;28;20047;-82
2023/11/02 00:54:05;;;;;;;0.50;0.50;;;8.70;99.90;;;;;;4973386;28;20046;-84
2023/11/02 00:56:38;;;;;;;0.50;0.50;;;8.70;99.90;;;;;;4973133;28;20069;-84
2023/11/02 00:59:05;;;;;;;0.63;0.50;;;8.70;99.90;;;;;;4983402;28;20462;-84
2023/11/02 01:01:31;;;;;;;0.65;0.65;;;8.70;99.90;;;;;;4939747;28;20138;-84
2023/11/02 01:04:05;;;;;;;0.40;0.40;;;8.60;99.90;;;;;;4976591;28;20047;-84
2023/11/02 01:06:32;;;;;;;0.40;0.40;;;8.60;99.90;;;;;;4975737;28;20427;-83
2023/11/02 01:09:08;;;;;;;0.40;0.40;;;8.60;99.90;;;;;;4960045;28;20043;-86
2023/11/02 01:11:37;;;;;;;0.47;0.47;;;8.60;99.90;;;;;;4997239;28;20042;-84
2023/11/02 01:14:13;;;;;;;0.40;0.40;;;8.50;99.90;;;;;;4995124;28;20113;-85
2023/11/02 01:16:39;;;;;;;0.45;0.45;;;8.60;99.90;;;;;;4977908;28;20046;-84
2023/11/02 01:19:07;;;;;;;0.63;0.63;;;8.50;99.90;;;;;;4995324;28;20125;-85
2023/11/02 01:21:32;;;;;;;0.40;0.40;;;8.50;99.90;;;;;;4963534;28;20167;-85
2023/11/02 01:24:07;;;;;;;0.50;0.50;;;8.50;99.90;;;;;;5026526;28;20478;-85
2023/11/02 01:26:58;;;;;;;0.45;0.45;;;8.50;99.90;;;;;;4992722;28;20043;-85
2023/11/02 01:29:26;;;;;;;0.50;0.50;;;8.50;99.90;;;;;;4966517;28;20505;-85
2023/11/02 01:31:52;;;;;;;0.80;0.80;;;8.40;99.90;;;;;;4977772;28;20076;-84
2023/11/02 01:34:23;;;;;;;0.30;0.30;;;8.40;99.90;;;;;;5002343;28;20122;-85
2023/11/02 01:36:51;;;;;;;0.40;0.40;;;8.40;99.90;;;;;;4966141;28;20503;-84
2023/11/02 01:39:17;;;;;;;1.20;1.20;;;8.40;99.90;;;;;;4979984;28;20035;-84
2023/11/02 01:41:52;;;;;;;0.50;0.50;;;8.40;99.90;;;;;;4988343;28;20050;-85
2023/11/02 01:44:40;;;;;;;0.40;0.40;;;8.40;99.90;;;;;;4973963;28;20055;-85
2023/11/02 01:47:14;;;;;;;0.45;0.45;;;8.30;99.90;;;;;;5000836;28;20495;-85
2023/11/02 01:49:52;;;;;;;0.40;0.40;;;8.40;99.90;;;;;;4968946;28;20050;-85
2023/11/02 01:52:56;;;;;;;0.50;0.50;;;8.40;99.90;;;;;;4993627;28;20487;-84
2023/11/02 01:55:38;;;;;;;0.50;0.50;;;8.40;99.90;;;;;;4986119;28;20153;-85
2023/11/02 01:59:05;;;;;;;0.40;0.40;;;8.40;99.90;;;;;;4980426;28;20058;-85
2023/11/02 02:01:54;;;;;;;0.50;0.50;;;8.40;99.90;;;;;;4986725;28;20060;-86
2023/11/02 02:04:29;;;;;;;0.73;0.73;;;8.30;99.90;;;;;;4980353;28;20047;-84
2023/11/02 02:07:25;;;;;;;0.40;0.40;;;8.30;99.90;;;;;;4986966;28;20102;-83
2023/11/02 02:10:09;;;;;;;0.50;0.50;;;8.30;99.90;;;;;;4978861;28;20054;-84
2023/11/02 02:12:43;;;;;;;0.40;0.40;;;8.30;99.90;;;;;;4974027;28;20031;-85
2023/11/02 02:15:33;;;;;;;1.27;1.17;;;8.30;99.90;;;;;;5006927;28;20045;-85
2023/11/02 02:18:13;;;;;;;0.43;0.43;;;8.30;99.90;;;;;;4983972;28;20089;-85
2023/11/02 02:20:44;;;;;;;0.40;0.40;;;8.30;99.90;;;;;;4979915;28;20054;-84
2023/11/02 02:23:22;;;;;;;0.47;0.47;;;8.40;99.90;;;;;;4996789;28;20051;-85
2023/11/02 02:26:25;;;;;;;0.47;0.47;;;8.30;99.90;;;;;;4989317;28;20096;-84
2023/11/02 02:29:26;;;;;;;0.50;0.50;;;8.30;99.90;;;;;;5030049;28;20058;-85
2023/11/02 02:32:29;;;;;;;0.40;0.40;;;8.30;99.90;;;;;;4972877;28;20210;-87
2023/11/02 02:35:11;;;;;;;0.50;0.50;;;8.30;99.90;;;;;;4987104;28;20071;-86
2023/11/02 02:37:47;;;;;;;0.50;0.50;;;8.30;99.90;;;;;;4984545;28;20441;-86
2023/11/02 02:40:21;;;;;;;0.40;0.40;;;8.30;99.90;;;;;;5001876;28;20696;-86
2023/11/02 02:42:49;;;;;;;0.40;0.40;;;8.30;99.90;;;;;;4963563;28;20061;-84
2023/11/02 02:45:16;;;;;;;0.40;0.40;;;8.30;99.90;;;;;;4987810;28;20493;-83
2023/11/02 02:47:44;;;;;;;0.32;0.32;;;8.40;99.90;;;;;;4975879;28;20096;-84
2023/11/02 02:50:14;;;;;;;0.40;0.40;;;8.30;99.90;;;;;;4980462;28;20047;-82
2023/11/02 02:52:42;;;;;;;0.63;0.63;;;8.40;99.90;;;;;;4993115;28;20502;-83
2023/11/02 02:55:09;;;;;;;0.47;0.47;;;8.30;99.90;;;;;;4982130;28;20039;-83
2023/11/02 02:57:48;;;;;;;0.30;0.30;;;8.30;99.90;;;;;;4968203;28;20052;-83
2023/11/02 03:00:15;;;;;;;0.40;0.40;;;8.20;99.90;;;;;;4984348;28;20043;-85
2023/11/02 03:02:42;;;;;;;0.50;0.50;;;8.20;99.90;;;;;;4987460;28;20042;-84
2023/11/02 03:05:14;;;;;;;0.40;0.40;;;8.20;99.90;;;;;;4980137;28;20088;-84
2023/11/02 03:07:40;;;;;;;0.35;0.35;;;8.20;99.90;;;;;;4973772;28;20033;-85
2023/11/02 03:10:08;;;;;;;0.40;0.40;;;8.20;99.90;;;;;;4996919;28;20074;-85
2023/11/02 03:12:35;;;;;;;0.40;0.40;;;8.20;99.90;;;;;;4968990;28;20134;-83
2023/11/02 03:15:05;;;;;;;0.50;0.50;;;8.20;99.90;;;;;;4974818;28;20088;-85
2023/11/02 03:17:55;;;;;;;0.40;0.40;;;8.20;99.90;;;;;;4975839;28;20060;-84
2023/11/02 03:20:22;;;;;;;0.50;0.50;;;8.20;99.90;;;;;;4979174;28;20055;-83
2023/11/02 03:22:48;;;;;;;0.63;0.63;;;8.20;99.90;;;;;;4987761;28;20442;-86
2023/11/02 03:25:30;;;;;;;0.50;0.50;;;8.20;99.90;;;;;;4969383;28;20035;-85
2023/11/02 03:28:25;;;;;;;0.50;0.50;;;8.30;99.90;;;;;;4976294;28;20160;-87
2023/11/02 03:30:51;;;;;;;0.45;0.45;;;8.30;99.90;;;;;;4988106;28;20527;-84
2023/11/02 03:33:31;;;;;;;0.40;0.40;;;8.30;99.90;;;;;;4992184;28;20043;-87
2023/11/02 03:36:18;;;;;;;0.30;0.30;;;8.30;99.90;;;;;;4980937;28;20054;-88
2023/11/02 03:39:09;;;;;;;0.20;0.20;;;8.30;99.90;;;;;;4992282;28;20576;-86
2023/11/02 03:41:40;;;;;;;0.40;0.40;;;8.30;99.90;;;;;;4992862;28;20062;-86
2023/11/02 03:44:17;;;;;;;0.50;0.50;;;8.30;99.90;;;;;;4995278;28;20361;-87
2023/11/02 03:47:09;;;;;;;0.40;0.40;;;8.30;99.90;;;;;;4978022;28;20046;-86
2023/11/02 03:49:48;;;;;;;1.23;1.15;;;8.30;99.90;;;;;;4970369;28;20073;-86
2023/11/02 03:52:20;;;;;;;0.50;0.50;;;8.30;99.90;;;;;;4964147;28;20072;-84
2023/11/02 03:54:48;;;;;;;0.50;0.50;;;8.30;99.90;;;;;;4980500;28;20586;-87
2023/11/02 03:57:17;;;;;;;0.47;0.47;;;8.30;99.90;;;;;;4989604;28;20062;-83
2023/11/02 04:00:13;;;;;;;0.40;0.40;;;8.40;99.90;;;;;;4976805;28;20054;-85
2023/11/02 04:02:54;;;;;;;0.40;0.40;;;8.50;99.90;;;;;;5003812;28;20039;-85
2023/11/02 04:05:21;;;;;;;0.40;0.40;;;8.50;99.90;;;;;;5001965;28;20051;-82
2023/11/02 04:08:19;;;;;;;0.40;0.40;;;8.60;99.90;;;;;;4983609;28;20500;-83
2023/11/02 04:11:22;;;;;;;0.30;0.30;;;8.60;99.90;;;;;;5005938;28;20046;-83
2023/11/02 04:13:50;;;;;;;0.40;0.40;;;8.60;99.90;;;;;;5009332;28;20054;-83
2023/11/02 04:16:16;;;;;;;0.40;0.40;;;8.70;99.90;;;;;;4995237;28;20042;-84
2023/11/02 04:18:42;;;;;;;0.40;0.40;;;8.70;99.90;;;;;;4986404;28;20450;-82
2023/11/02 04:21:07;;;;;;;0.30;0.30;;;8.70;99.90;;;;;;4978574;28;20078;-83
2023/11/02 04:23:33;;;;;;;0.60;0.60;;;8.70;99.90;;;;;;4938293;28;20031;-82
2023/11/02 04:25:59;;;;;;;0.30;0.30;;;8.70;99.90;;;;;;4972757;28;20043;-83
2023/11/02 04:28:24;;;;;;;0.90;0.90;;;8.80;99.90;;;;;;4959975;28;20041;-83
2023/11/02 04:30:50;;;;;;;0.45;0.45;;;8.80;99.90;;;;;;4985066;28;20051;-85
2023/11/02 04:33:17;;;;;;;0.40;0.40;;;8.80;99.90;;;;;;4981845;28;20068;-85
2023/11/02 04:35:43;;;;;;;0.43;0.43;;;8.90;99.90;;;;;;4993132;28;20441;-84
2023/11/02 04:38:10;;;;;;;0.40;0.40;;;8.90;99.90;;;;;;4966856;28;20045;-85
2023/11/02 04:40:39;;;;;;;0.40;0.40;;;8.90;99.90;;;;;;5000772;28;20042;-85
2023/11/02 04:43:07;;;;;;;0.68;0.68;;;9.00;99.90;;;;;;4978465;28;20121;-84
2023/11/02 04:45:36;;;;;;;0.60;0.60;;;9.00;99.90;;;;;;4963473;28;20589;-85
2023/11/02 04:48:03;;;;;;;0.38;0.38;;;9.00;99.90;;;;;;4973326;28;20043;-86
2023/11/02 04:50:28;;;;;;;;;;;9.00;99.90;;;;;;4950633;28;20043;-85
2023/11/02 04:52:54;;;;;;;0.50;0.50;;;9.00;99.90;;;;;;4977772;28;20390;-84
2023/11/02 04:55:20;;;;;;;0.40;0.40;;;9.00;99.90;;;;;;4956638;28;20042;-83
2023/11/02 04:57:46;;;;;;;0.30;0.30;;;9.10;99.90;;;;;;4984837;28;20051;-84
2023/11/02 05:00:12;;;;;;;0.43;0.43;;;9.60;99.90;;;;;;5016867;28;20477;-83
2023/11/02 05:02:38;;;;;;;;;;;9.10;99.90;;;;;;4982353;28;20047;-85
2023/11/02 05:05:04;;;;;;;0.35;0.35;;;9.20;99.90;;;;;;4997096;28;19975;-84
2023/11/02 05:07:30;;;;;;;0.40;0.40;;;9.20;99.90;;;;;;4993186;28;20041;-85
2023/11/02 05:09:55;;;;;;;0.40;0.40;;;9.20;99.90;;;;;;4956666;28;20389;-83
2023/11/02 05:12:21;;;;;;;0.47;0.47;;;9.20;99.90;;;;;;4982290;28;20039;-83
2023/11/02 05:14:47;;;;;;;0.40;0.40;;;9.20;99.90;;;;;;4974223;28;20053;-84
2023/11/02 05:17:13;;;;;;;0.30;0.30;;;9.20;99.90;;;;;;4995676;28;20450;-83
2023/11/02 05:19:38;;;;;;;0.45;0.45;;;9.30;99.90;;;;;;4990783;28;20077;-83
2023/11/02 05:22:05;;;;;;;0.50;0.50;;;9.30;99.90;;;;;;4981102;28;20050;-82
2023/11/02 05:24:31;;;;;;;0.30;0.30;;;9.30;99.90;;;;;;4995766;28;20091;-85
2023/11/02 05:26:56;;;;;;;0.70;0.70;;;9.40;99.90;;;;;;4977280;28;20039;-84
2023/11/02 05:29:23;;;;;;;0.32;0.32;;;9.30;99.90;;;;;;4975884;28;20452;-84
2023/11/02 05:31:48;;;;;;;0.40;0.40;;;9.30;99.90;;;;;;4977398;28;20486;-85
2023/11/02 05:34:17;;;;;;;0.50;0.50;;;9.30;99.90;;;;;;4980240;28;20047;-84
2023/11/02 05:36:43;;;;;;;0.38;0.38;;;9.30;99.90;;;;;;4980620;28;20035;-84
2023/11/02 05:39:08;;;;;;;0.30;0.30;;;9.30;99.90;;;;;;4958740;28;20039;-85
2023/11/02 05:41:34;;;;;;;0.32;0.32;;;9.30;99.90;;;;;;4980621;28;20043;-82
2023/11/02 05:44:00;;;;;;;0.40;0.40;;;9.30;99.90;;;;;;4972056;28;20139;-84
2023/11/02 05:46:26;;;;;;;0.40;0.40;;;9.30;99.90;;;;;;4970539;28;20476;-84
2023/11/02 05:48:51;;;;;;;0.40;0.40;;;9.30;99.90;;;;;;4978916;28;20049;-85
2023/11/02 05:51:17;;;;;;;0.40;0.40;;;9.30;99.90;;;;;;4973568;28;20466;-86
2023/11/02 05:53:43;;;;;;;0.35;0.35;;;9.40;99.90;;;;;;4981427;28;20082;-84
2023/11/02 05:56:09;;;;;;;0.40;0.40;;;9.30;99.90;;;;;;4990767;28;20043;-85
2023/11/02 05:58:35;;;;;;;0.40;0.40;;;9.40;99.90;;;;;;4971520;28;20426;-86
2023/11/02 06:01:01;;;;;;;0.30;0.30;;;9.40;99.90;;;;;;4991701;28;20035;-85
2023/11/02 06:03:27;;;;;;;;;;;9.40;99.90;;;;;;4957269;28;20050;-84
2023/11/02 06:05:53;;;;;;;0.40;0.40;;;9.50;99.90;;;;;;4972921;28;19993;-83
2023/11/02 06:08:19;;;;;;;0.35;0.35;;;9.40;99.90;;;;;;4980130;28;20039;-84
2023/11/02 06:10:45;;;;;;;0.30;0.30;;;9.50;99.90;;;;;;4979506;28;20433;-84
2023/11/02 06:13:12;;;;;;;0.50;0.50;;;9.60;99.90;;;;;;4958683;28;20154;-84
2023/11/02 06:15:37;;;;;;;0.30;0.30;;;9.60;99.90;;;;;;4976760;28;20045;-85
2023/11/02 06:18:04;;;;;;;0.30;0.30;;;9.60;99.90;;;;;;4990863;28;20045;-85
2023/11/02 06:20:31;;;;;;;0.40;0.40;;;9.70;99.90;;;;;;4956742;28;20043;-86
2023/11/02 06:22:56;;;;;;;;;;;9.70;99.90;;;;;;4990049;28;20058;-85
2023/11/02 06:25:22;;;;;;;0.40;0.40;;;9.80;99.90;;;;;;4981305;28;19925;-85
2023/11/02 06:27:49;;;;;;;0.30;0.30;;;9.80;99.90;;;;;;4975870;28;20104;-85
2023/11/02 06:30:14;;;;;;;0.50;0.50;;;9.80;99.90;;;;;;4995279;28;20036;-84
2023/11/02 06:32:40;;;;;;;0.35;0.35;;;9.80;99.90;;;;;;4967226;28;20401;-84
2023/11/02 06:35:06;;;;;;;0.95;0.95;;;9.80;99.90;;;;;;4982400;28;20051;-84
2023/11/02 06:37:32;;;;;;;0.38;0.38;;;9.90;99.90;;;;;;4963860;28;20045;-85
2023/11/02 06:39:59;;;;;;;0.55;0.55;;;9.80;99.90;;;;;;4950381;28;20543;-85
2023/11/02 06:42:27;;;;;;;0.50;0.50;;;9.90;99.90;;;;;;4966621;28;20050;-84
2023/11/02 06:44:52;;;;;;;0.50;0.50;;;9.90;99.90;;;;;;4977303;28;20488;-85
2023/11/02 06:47:18;;;;;;;0.40;0.40;;;10.00;99.90;;;;;;4961285;28;20079;-85
2023/11/02 06:49:44;;;;;;;0.40;0.40;;;10.00;99.90;;;;;;4974753;28;20046;-85
2023/11/02 06:52:10;;;;;;;0.22;0.22;;;10.10;99.90;;;;;;4973935;28;20076;-85
2023/11/02 06:54:35;;;;;;;0.47;0.47;;;10.10;99.90;;;;;;5015500;28;20042;-84
2023/11/02 06:57:05;;;;;;;0.40;0.40;;;10.00;99.90;;;;;;5014550;28;20471;-81
2023/11/02 06:59:31;;;;;;;0.28;0.28;;;10.00;99.90;;;;;;4995696;28;20105;-82
2023/11/02 07:01:58;;;;;;;0.40;0.40;;;9.90;99.90;;;;;;4987328;28;20038;-85
2023/11/02 07:04:24;;;;;;;0.50;0.50;;;9.80;99.90;;;;;;4977150;28;20086;-85
2023/11/02 07:06:49;;;;;;;0.63;0.63;;;9.80;99.90;;;;;;5039277;28;20400;-85
2023/11/02 07:09:15;;;;;;;0.40;0.40;;;9.70;99.90;;;;;;4966398;28;20043;-82
2023/11/02 07:11:41;;;;;;;0.40;0.40;;;9.70;99.90;;;;;;5029311;28;20036;-83
2023/11/02 07:14:07;;;;;;;0.35;0.35;;;9.60;99.90;;;;;;5003520;28;20042;-83
2023/11/02 07:16:32;;;;;;;0.30;0.30;;;9.70;99.90;;;;;;5012285;28;20036;-84
2023/11/02 07:19:02;;;;;;;0.30;0.30;;;9.70;99.90;;;;;;5023446;28;20378;-83
2023/11/02 07:21:28;;;;;;;0.30;0.30;;;9.70;99.90;;;;;;5026596;28;20043;-84
2023/11/02 07:23:54;;;;;;;0.40;0.40;;;9.70;99.90;;;;;;4991206;28;20047;-85
2023/11/02 07:26:20;;;;;;;0.30;0.30;;;9.80;99.90;;;;;;4988007;28;20050;-84
2023/11/02 07:28:45;;;;;;;0.40;0.40;;;9.80;99.90;;;;;;4984505;28;20056;-84
2023/11/02 07:31:11;;;;;;;0.35;0.35;;;9.90;99.90;;;;;;5027559;28;20047;-86
2023/11/02 07:33:40;;;;;;;0.38;0.38;;;9.90;99.90;;;;;;5000825;28;20099;-84
2023/11/02 07:36:14;;;;;;;0.40;0.40;;;9.90;99.90;;;;;;5068225;28;20048;-87
2023/11/02 07:38:40;;;;;;;0.30;0.30;;;9.90;99.90;;;;;;4993869;28;20045;-86
2023/11/02 07:41:09;;;;;;;0.40;0.40;;;10.00;99.90;;;;;;4997221;28;20062;-84
2023/11/02 07:43:41;;;;;;;0.25;0.25;;;10.10;99.90;;;;;;5027588;28;20087;-84
2023/11/02 07:46:06;;;;;;;0.50;0.50;;;10.10;99.90;;;;;;4989614;28;20036;-88
2023/11/02 07:48:33;;;;;;;0.50;0.50;;;10.10;99.90;;;;;;4960714;28;20084;-84
2023/11/02 07:50:59;;;;;;;;;;;10.20;99.90;;;;;;5044008;28;20055;-84
2023/11/02 07:53:24;;;;;;;0.30;0.30;;;10.30;99.90;;;;;;4990782;28;19925;-85
2023/11/02 07:55:50;;;;;;;0.32;0.32;;;10.30;99.90;;;;;;5014424;28;20108;-84
2023/11/02 07:58:16;;;;;;;0.40;0.40;;;10.40;99.90;;;;;;4997559;28;20098;-82
2023/11/02 08:00:42;;;;;;;0.30;0.30;;;10.40;99.90;;;;;;5037034;28;20052;-85
2023/11/02 08:03:07;;;;;;;0.35;0.35;;;10.50;99.90;;;;;;5042810;28;20048;-86
2023/11/02 08:05:33;;;;;;;0.40;0.40;;;10.50;99.90;;;;;;4973084;28;20067;-84
2023/11/02 08:07:59;;;;;;;0.30;0.30;;;10.50;99.90;;;;;;5040482;28;20043;-82
2023/11/02 08:10:24;;;;;;;0.30;0.30;;;10.40;99.90;;;;;;5034324;28;21690;-82
2023/11/02 08:12:50;;;;;;;0.30;0.30;;;10.40;99.90;;;;;;4981777;28;20494;-83
2023/11/02 08:15:15;;;;;;;0.98;0.98;;;10.40;99.90;;;;;;4967401;28;20130;-83
2023/11/02 08:17:42;;;;;;;0.20;0.20;;;10.40;99.90;;;;;;4968239;28;20054;-83
2023/11/02 08:20:13;;;;;;;0.20;0.20;;;10.40;99.90;;;;;;4984885;28;20115;-82
2023/11/02 08:22:39;;;;;;;0.40;0.40;;;10.40;99.90;;;;;;4986003;28;20047;-81
2023/11/02 08:25:06;;;;;;;0.30;0.30;;;10.40;99.90;;;;;;4956530;28;20142;-85
2023/11/02 08:27:33;;;;;;;0.38;0.38;;;10.30;99.90;;;;;;5006832;28;20038;-84
2023/11/02 08:29:59;;;;;;;1.65;0.95;;;10.40;99.90;;;;;;4957522;28;20040;-82
2023/11/02 08:32:25;;;;;;;0.30;0.30;;;10.30;99.90;;;;;;5003969;28;20122;-83
2023/11/02 08:34:51;;;;;;;0.45;0.45;;;10.30;99.90;;;;;;4971805;28;20064;-80
2023/11/02 08:37:17;;;;;;;0.20;0.20;;;10.40;99.90;;;;;;4965497;28;20051;-83
2023/11/02 08:39:43;;;;;;;0.30;0.30;;;10.40;99.90;;;;;;4982610;28;20046;-80
2023/11/02 08:42:08;;;;;;;0.38;0.38;;;10.40;99.90;;;;;;4991885;28;20112;-80
2023/11/02 08:44:38;;;;;;;0.30;0.30;;;10.50;99.90;;;;;;4994765;28;20047;-80
2023/11/02 08:47:04;;;;;;;0.30;0.30;;;10.50;99.90;;;;;;4984276;28;20046;-82
2023/11/02 08:49:30;;;;;;;0.40;0.40;;;10.70;99.90;;;;;;5010575;28;20508;-80
2023/11/02 08:51:55;;;;;;;0.30;0.30;;;10.70;99.90;;;;;;5000433;28;20104;-81
2023/11/02 08:54:21;;;;;;;0.30;0.30;;;10.70;99.90;;;;;;5057562;28;20072;-82
2023/11/02 08:56:47;;;;;;;;;;;10.80;99.90;;;;;;5019933;28;20050;-82
2023/11/02 08:59:13;;;;;;;0.32;0.32;;;10.80;99.90;;;;;;5022799;28;19920;-83
2023/11/02 09:01:39;;;;;;;0.30;0.30;;;10.80;99.90;;;;;;5031287;28;20040;-86
2023/11/02 09:04:05;;;;;;;0.30;0.30;;;10.80;99.90;;;;;;5005894;28;20392;-80
2023/11/02 09:06:31;;;;;;;0.65;0.65;;;10.80;99.90;;;;;;5049835;28;20075;-83
2023/11/02 09:08:56;;;;;;;0.30;0.30;;;10.80;99.90;;;;;;4976768;28;20188;-80
2023/11/02 09:11:23;;;;;;;0.40;0.40;;;10.90;99.90;;;;;;5043040;28;20049;-81
2023/11/02 09:13:49;;;;;;;0.63;0.63;;;10.80;99.90;;;;;;4996646;28;20123;-82
2023/11/02 09:16:15;;;;;;;0.30;0.30;;;10.80;99.90;;;;;;5032513;28;20074;-82
2023/11/02 09:18:40;;;;;;;0.30;0.30;;;10.80;99.90;;;;;;4996278;28;20057;-82
2023/11/02 09:21:07;;;;;;;0.40;0.40;;;10.80;99.90;;;;;;5026654;28;20056;-82
2023/11/02 09:23:34;;;;;;;0.20;0.20;;;10.80;99.90;;;;;;5007177;28;20094;-81
2023/11/02 09:26:02;;;;;;;0.25;0.25;;;10.80;99.90;;;;;;5008345;28;20111;-82
2023/11/02 09:28:28;;;;;;;0.30;0.30;;;10.90;99.90;;;;;;5031300;28;20450;-80
2023/11/02 09:30:53;;;;;;;0.40;0.40;;;11.00;99.90;;;;;;4997429;28;20048;-81
2023/11/02 09:33:19;;;;;;;0.30;0.30;;;11.20;99.90;;;;;;4998022;28;20085;-83
2023/11/02 09:35:45;;;;;;;0.40;0.40;;;11.50;99.90;;;;;;4996849;28;20108;-83
2023/11/02 09:38:13;;;;;;;0.47;0.47;;;11.70;99.90;;;;;;4996684;28;20043;-85
2023/11/02 09:40:40;;;;;;;0.28;0.28;;;11.80;99.90;;;;;;5032178;28;20397;-82
2023/11/02 09:43:06;;;;;;;0.40;0.40;;;12.00;99.90;;;;;;5051110;28;20051;-84
2023/11/02 09:45:36;;;;;;;0.30;0.30;;;12.10;99.90;;;;;;5019944;28;20050;-81
2023/11/02 09:48:03;;;;;;;0.82;0.82;;;12.00;99.90;;;;;;4989476;28;20039;-81
2023/11/02 09:50:32;;;;;;;0.30;0.30;;;12.00;99.90;;;;;;5012031;28;20100;-81
2023/11/02 09:52:57;;;;;;;0.73;0.73;;;12.00;99.90;;;;;;5055175;28;20408;-85
2023/11/02 09:55:24;;;;;;;0.30;0.30;;;12.00;99.90;;;;;;5040826;28;20038;-83
2023/11/02 09:57:51;;;;;;;0.40;0.40;;;12.00;99.90;;;;;;4949563;28;20051;-79
2023/11/02 10:00:19;;;;;;;0.35;0.35;;;12.10;99.90;;;;;;4982305;28;20389;-81
2023/11/02 10:02:48;;;;;;;0.45;0.45;;;12.20;99.90;;;;;;4982281;28;20133;-81
2023/11/02 10:05:17;;;;;;;0.30;0.30;;;12.20;99.90;;;;;;4983130;28;20556;-81
2023/11/02 10:07:44;;;;;;;0.30;0.30;;;12.10;99.90;;;;;;4966805;28;20125;-81
2023/11/02 10:10:17;;;;;;;3.33;0.95;;;12.10;99.90;;;;;;4961329;28;20102;-84
2023/11/02 10:12:43;;;;;;;0.40;0.40;;;12.00;99.90;;;;;;4974740;28;20129;-82
2023/11/02 10:15:16;;;;;;;1.20;0.73;;;12.00;99.90;;;;;;5051931;28;20141;-85
2023/11/02 10:17:42;;;;;;;0.20;0.20;;;11.90;99.90;;;;;;5001118;28;20043;-82
2023/11/02 10:20:15;;;;;;;0.30;0.30;;;11.90;99.90;;;;;;5003499;28;20437;-85
2023/11/02 10:22:44;;;;;;;0.40;0.40;;;11.90;99.90;;;;;;4967834;28;20434;-82
2023/11/02 10:25:14;;;;;;;0.25;0.25;;;11.90;99.90;;;;;;5004874;28;20095;-82
2023/11/02 10:27:44;;;;;;;0.20;0.20;;;11.90;99.90;;;;;;5019690;28;20473;-84
2023/11/02 10:30:13;;;;;;;0.28;0.28;;;12.00;99.90;;;;;;5040235;28;20504;-84
2023/11/02 10:32:39;;;;;;;0.30;0.30;;;12.00;99.90;;;;;;5017732;28;20139;-83
2023/11/02 10:35:10;;;;;;;0.30;0.30;;;12.00;99.90;;;;;;4983844;28;20158;-84
2023/11/02 10:37:37;;;;;;;0.40;0.40;;;12.00;99.90;;;;;;4997960;28;20543;-84
2023/11/02 10:40:04;;;;;;;0.52;0.52;;;11.80;99.90;;;;;;4998370;28;20119;-82
2023/11/02 10:42:30;;;;;;;0.30;0.30;;;11.80;99.90;;;;;;5042605;28;20042;-83
2023/11/02 10:44:57;;;;;;;0.30;0.30;;;11.80;99.90;;;;;;4986321;28;20076;-83
2023/11/02 10:47:34;;;;;;;0.25;0.25;;;11.70;99.90;;;;;;4990773;28;20038;-83
2023/11/02 10:50:02;;;;;;;1.08;0.60;;;11.70;99.90;;;;;;4990716;28;20139;-82
2023/11/02 10:52:27;;;;;;;0.28;0.28;;;11.70;99.90;;;;;;5007912;28;20092;-82
2023/11/02 10:55:11;;;;;;;0.40;0.40;;;11.80;99.90;;;;;;4983224;28;20419;-84
2023/11/02 10:57:40;;;;;;;0.38;0.38;;;11.80;99.90;;;;;;4984035;28;20063;-84
2023/11/02 11:00:07;;;;;;;0.30;0.30;;;12.10;99.90;;;;;;5038952;28;20038;-83
2023/11/02 11:02:37;;;;;;;0.30;0.30;;;11.90;99.90;;;;;;4992576;28;20043;-82
2023/11/02 11:05:09;;;;;;;0.30;0.30;;;11.90;99.90;;;;;;4982625;28;20096;-82
2023/11/02 11:07:44;;;;;;;0.30;0.30;;;12.00;99.90;;;;;;4971153;28;20058;-82
2023/11/02 11:10:13;;;;;;;0.40;0.40;;;12.10;99.90;;;;;;5026982;28;20054;-81
2023/11/02 11:12:40;;;;;;;0.65;0.65;;;12.20;99.90;;;;;;5020024;28;20043;-82
2023/11/02 11:15:12;;;;;;;0.28;0.28;;;12.40;99.90;;;;;;4985066;28;20051;-82
2023/11/02 11:17:45;;;;;;;0.28;0.28;;;12.60;99.90;;;;;;5010420;28;20040;-84
2023/11/02 11:20:12;;;;;;;0.65;0.52;;;12.80;99.90;;;;;;5009613;28;20047;-83
2023/11/02 11:22:44;;;;;;;0.20;0.20;;;13.00;99.90;;;;;;4967691;28;20504;-81
2023/11/02 11:25:09;;;;;;;0.30;0.30;;;13.10;99.90;;;;;;4983313;28;20455;-83
2023/11/02 11:27:38;;;;;;;0.30;0.30;;;13.20;99.90;;;;;;5020408;28;20032;-84
2023/11/02 11:30:06;;;;;;;0.20;0.20;;;13.30;99.90;;;;;;4956899;28;20057;-81
2023/11/02 11:32:36;;;;;;;0.22;0.22;;;13.40;99.90;;;;;;5003670;28;20496;-81
2023/11/02 11:35:12;;;;;;;0.30;0.30;;;13.50;99.90;;;;;;5018004;28;20040;-81
2023/11/02 11:37:49;;;;;;;0.63;0.63;;;13.50;99.90;;;;;;5001495;28;20046;-81
2023/11/02 11:40:22;;;;;;;0.25;0.25;;;13.60;99.90;;;;;;4987404;28;20047;-82
2023/11/02 11:42:54;;;;;;;0.30;0.30;;;13.60;99.90;;;;;;4989929;28;20447;-84
2023/11/02 11:45:32;;;;;;;0.30;0.30;;;13.60;99.90;;;;;;4963974;28;20046;-83
2023/11/02 11:48:03;;;;;;;0.30;0.30;;;13.60;99.90;;;;;;4993897;28;20039;-82
2023/11/02 11:50:34;;;;;;;0.20;0.20;;;13.60;99.90;;;;;;4986991;28;20966;-82
2023/11/02 11:53:20;;;;;;;0.40;0.40;;;13.70;99.90;;;;;;5044408;28;20137;-83
2023/11/02 11:56:01;;;;;;;0.52;0.52;;;13.70;99.90;;;;;;4971514;28;20100;-83
2023/11/02 11:58:37;;;;;;;0.30;0.30;;;13.80;99.90;;;;;;4959581;28;20069;-82
2023/11/02 12:01:05;;;;;;;0.20;0.20;;;13.80;99.90;;;;;;4964266;28;20054;-80
2023/11/02 12:03:36;;;;;;;0.32;0.32;;;13.80;99.90;;;;;;4998856;28;20107;-83
2023/11/02 12:06:15;;;;;;;0.30;0.30;;;13.80;99.90;;;;;;5003646;28;20448;-81
2023/11/02 12:08:51;;;;;;;0.30;0.30;;;13.80;99.90;;;;;;4971808;28;20055;-82
2023/11/02 12:11:28;;;;;;;0.30;0.30;;;13.80;99.90;;;;;;4952549;28;20708;-82
2023/11/02 12:13:57;;;;;;;0.30;0.30;;;13.80;99.90;;;;;;4983384;28;20365;-83
2023/11/02 12:16:33;;;;;;;0.30;0.30;;;13.80;99.90;;;;;;4962695;28;20050;-83
2023/11/02 12:18:59;;;;;;;0.50;0.50;;;13.80;99.90;;;;;;5008278;28;20037;-83
2023/11/02 12:21:25;;;;;;;0.25;0.25;;;13.70;99.90;;;;;;5015094;28;20458;-82
2023/11/02 12:23:52;;;;;;;0.20;0.20;;;13.60;99.90;;;;;;4972379;28;20103;-83
2023/11/02 12:26:24;;;;;;;0.30;0.30;;;13.60;99.90;;;;;;4978336;28;20043;-83
2023/11/02 12:29:11;;;;;;;0.25;0.25;;;13.60;99.90;;;;;;5003344;28;20055;-83
2023/11/02 12:31:43;;;;;;;0.30;0.30;;;13.60;99.90;;;;;;5016465;28;20092;-82
2023/11/02 12:34:13;;;;;;;0.20;0.20;;;13.60;99.90;;;;;;4975546;28;20039;-82
2023/11/02 12:36:46;;;;;;;0.30;0.30;;;13.70;99.90;;;;;;5061176;28;20051;-83
2023/11/02 12:39:14;;;;;;;0.30;0.30;;;13.70;99.90;;;;;;5014041;28;20055;-82
2023/11/02 12:41:42;;;;;;;0.30;0.30;;;13.70;99.90;;;;;;4986203;28;20094;-82
2023/11/02 12:44:17;;;;;;;0.20;0.20;;;13.80;99.90;;;;;;5041393;28;20084;-82
2023/11/02 12:46:48;;;;;;;0.20;0.20;;;13.90;99.90;;;;;;5056282;28;20043;-82
2023/11/02 12:49:20;;;;;;;0.47;0.47;;;14.10;99.90;;;;;;4976944;28;20035;-82
2023/11/02 12:52:01;;;;;;;0.30;0.30;;;14.30;99.90;;;;;;4996120;28;20055;-82
2023/11/02 12:54:30;;;;;;;0.28;0.28;;;14.50;99.90;;;;;;4994763;28;20424;-81
2023/11/02 12:57:06;;;;;;;0.20;0.20;;;14.60;99.90;;;;;;4968791;28;20089;-81
2023/11/02 12:59:41;;;;;;;0.30;0.30;;;14.60;99.90;;;;;;4997498;28;20485;-81
2023/11/02 13:02:11;;;;;;;0.30;0.30;;;14.40;99.90;;;;;;5002974;28;20039;-80
2023/11/02 13:04:51;;;;;;;0.90;0.90;;;14.20;99.90;;;;;;5006803;28;20042;-81
2023/11/02 13:07:23;;;;;;;0.30;0.30;;;14.10;99.90;;;;;;4997765;28;20051;-84
2023/11/02 13:10:09;;;;;;;0.28;0.28;;;14.10;99.90;;;;;;4953699;28;20086;-83